Time;durP1;ratioP1;P1;durP2;ratioP2;P2;SDS_P1;SDS_P2;PMS_P1;PMS_P2;Temp;Humidity;BMP_temperature;BMP_pressure;BME280_temperature;BME280_humidity;BME280_pressure;Samples;Min_cycle;Max_cycle;Signal;HPM_P1;HPM_P2
2022/04/23 00:00:45;;;;;;;31.50;18.77;;;;;;;;;;4958960;28;20477;-83
2022/04/23 00:03:11;;;;;;;30.52;18.73;;;;;;;;;;4960342;28;20055;-84
2022/04/23 00:05:36;;;;;;;29.63;18.52;;;;;;;;;;4959581;28;20500;-83
2022/04/23 00:08:02;;;;;;;29.05;17.92;;;;;;;;;;4942316;28;20479;-83
2022/04/23 00:10:28;;;;;;;30.17;18.33;;;;;;;;;;4958879;29;20035;-83
2022/04/23 00:12:54;;;;;;;25.55;16.65;;;;;;;;;;4959023;29;20027;-82
2022/04/23 00:15:21;;;;;;;28.63;18.02;;;;;;;;;;4958751;28;20043;-83
2022/04/23 00:17:47;;;;;;;29.50;18.33;;;;;;;;;;4959368;28;20037;-83
2022/04/23 00:20:12;;;;;;;31.10;18.65;;;;;;;;;;4959634;28;20091;-83
2022/04/23 00:22:37;;;;;;;30.42;18.92;;;;;;;;;;4959302;28;20129;-82
2022/04/23 00:25:03;;;;;;;27.58;17.73;;;;;;;;;;4958932;28;20035;-83
2022/04/23 00:27:28;;;;;;;36.22;22.10;;;;;;;;;;4958385;29;20098;-83
2022/04/23 00:29:53;;;;;;;42.60;25.45;;;;;;;;;;4942362;29;20027;-83
2022/04/23 00:32:18;;;;;;;30.38;18.83;;;;;;;;;;4959506;28;20070;-83
2022/04/23 00:34:43;;;;;;;32.22;19.52;;;;;;;;;;4958744;28;20035;-83
2022/04/23 00:37:10;;;;;;;34.13;19.92;;;;;;;;;;4958691;28;20028;-83
2022/04/23 00:39:35;;;;;;;32.20;18.77;;;;;;;;;;4958910;28;20042;-82
2022/04/23 00:42:08;;;;;;;31.33;19.23;;;;;;;;;;4957507;29;20404;-83
2022/04/23 00:44:34;;;;;;;31.90;19.13;;;;;;;;;;4957635;29;20571;-82
2022/04/23 00:46:59;;;;;;;30.63;18.83;;;;;;;;;;4957331;28;20074;-82
2022/04/23 00:49:24;;;;;;;34.75;19.80;;;;;;;;;;4959059;28;20400;-83
2022/04/23 00:51:49;;;;;;;34.42;19.67;;;;;;;;;;4958683;28;20094;-83
2022/04/23 00:54:15;;;;;;;33.90;18.55;;;;;;;;;;4958210;28;20041;-83
2022/04/23 00:56:40;;;;;;;32.67;18.05;;;;;;;;;;4958497;28;20035;-82
2022/04/23 00:59:06;;;;;;;35.42;19.92;;;;;;;;;;4958410;28;20391;-83
2022/04/23 01:01:31;;;;;;;32.05;18.98;;;;;;;;;;4957288;29;20518;-83
2022/04/23 01:03:57;;;;;;;33.25;18.67;;;;;;;;;;4958834;28;20125;-82
2022/04/23 01:06:23;;;;;;;32.15;18.83;;;;;;;;;;4958891;28;20050;-83
2022/04/23 01:08:48;;;;;;;33.08;19.17;;;;;;;;;;4958707;28;20031;-83
2022/04/23 01:11:14;;;;;;;37.65;20.73;;;;;;;;;;4958205;28;20039;-83
2022/04/23 01:13:43;;;;;;;31.10;18.38;;;;;;;;;;4958555;28;20039;-83
2022/04/23 01:16:08;;;;;;;34.45;20.17;;;;;;;;;;4957938;28;20067;-83
2022/04/23 01:18:33;;;;;;;33.58;20.17;;;;;;;;;;4957933;28;20046;-83
2022/04/23 01:20:59;;;;;;;33.92;19.50;;;;;;;;;;4957486;29;20035;-83
2022/04/23 01:23:24;;;;;;;35.15;20.10;;;;;;;;;;4958468;28;20059;-83
2022/04/23 01:25:51;;;;;;;33.75;19.65;;;;;;;;;;4958016;28;20031;-83
2022/04/23 01:28:16;;;;;;;38.67;21.75;;;;;;;;;;4941044;29;20272;-83
2022/04/23 01:30:42;;;;;;;44.75;21.80;;;;;;;;;;4957961;28;20140;-83
2022/04/23 01:33:07;;;;;;;42.45;24.58;;;;;;;;;;4957861;28;20041;-82
2022/04/23 01:35:32;;;;;;;35.97;20.48;;;;;;;;;;4957453;28;20492;-82
2022/04/23 01:37:57;;;;;;;37.75;20.05;;;;;;;;;;4958259;28;20121;-83
2022/04/23 01:40:23;;;;;;;38.85;21.08;;;;;;;;;;4940613;29;20027;-82
2022/04/23 01:42:48;;;;;;;37.85;20.55;;;;;;;;;;4958174;28;20067;-83
2022/04/23 01:45:13;;;;;;;37.92;20.13;;;;;;;;;;4957260;28;20074;-82
2022/04/23 01:47:38;;;;;;;34.63;20.35;;;;;;;;;;4957665;28;20035;-83
2022/04/23 01:50:04;;;;;;;35.50;19.25;;;;;;;;;;4957914;28;20089;-83
2022/04/23 01:52:29;;;;;;;34.45;20.60;;;;;;;;;;4958160;28;20039;-83
2022/04/23 01:54:54;;;;;;;35.35;20.25;;;;;;;;;;4957493;28;20094;-82
2022/04/23 01:57:20;;;;;;;33.67;19.08;;;;;;;;;;4956420;29;20042;-83
2022/04/23 01:59:45;;;;;;;35.35;20.10;;;;;;;;;;4957745;28;20046;-82
2022/04/23 02:02:10;;;;;;;31.38;18.50;;;;;;;;;;4957667;28;20090;-83
2022/04/23 02:04:35;;;;;;;33.53;19.25;;;;;;;;;;4955866;29;20126;-82
2022/04/23 02:07:01;;;;;;;35.08;19.35;;;;;;;;;;4958160;28;20031;-82
2022/04/23 02:09:26;;;;;;;36.35;20.20;;;;;;;;;;4957385;28;20058;-83
2022/04/23 02:11:52;;;;;;;32.80;19.10;;;;;;;;;;4956006;29;20035;-82
2022/04/23 02:14:17;;;;;;;41.25;21.25;;;;;;;;;;4955870;29;20110;-82
2022/04/23 02:16:42;;;;;;;36.35;20.42;;;;;;;;;;4957466;28;20038;-83
2022/04/23 02:19:08;;;;;;;39.05;20.52;;;;;;;;;;4956374;29;20039;-82
2022/04/23 02:21:33;;;;;;;38.17;20.35;;;;;;;;;;4955572;28;20094;-83
2022/04/23 02:23:58;;;;;;;32.95;18.77;;;;;;;;;;4956791;28;20039;-83
2022/04/23 02:26:23;;;;;;;40.17;20.75;;;;;;;;;;4957518;28;20420;-83
2022/04/23 02:28:49;;;;;;;40.90;21.60;;;;;;;;;;4957893;28;20035;-83
2022/04/23 02:31:14;;;;;;;40.95;21.45;;;;;;;;;;4955919;29;20030;-83
2022/04/23 02:33:39;;;;;;;42.15;21.23;;;;;;;;;;4956063;29;20504;-82
2022/04/23 02:36:06;;;;;;;41.90;20.55;;;;;;;;;;4955043;29;20098;-83
2022/04/23 02:38:31;;;;;;;42.20;21.33;;;;;;;;;;4957103;28;20046;-83
2022/04/23 02:40:56;;;;;;;38.88;19.85;;;;;;;;;;4956917;28;20035;-82
2022/04/23 02:43:21;;;;;;;44.55;21.52;;;;;;;;;;4957616;28;20484;-82
2022/04/23 02:45:48;;;;;;;38.60;19.83;;;;;;;;;;4955166;28;20038;-82
2022/04/23 02:48:13;;;;;;;41.50;20.20;;;;;;;;;;4955699;28;20042;-82
2022/04/23 02:50:38;;;;;;;39.28;19.90;;;;;;;;;;4955960;29;20039;-82
2022/04/23 02:53:04;;;;;;;40.72;20.05;;;;;;;;;;4957143;28;20039;-82
2022/04/23 02:55:31;;;;;;;38.90;20.48;;;;;;;;;;4956673;28;20492;-82
2022/04/23 02:57:57;;;;;;;42.15;20.80;;;;;;;;;;4957543;28;20112;-82
2022/04/23 03:00:22;;;;;;;46.00;21.30;;;;;;;;;;4957655;28;20062;-84
2022/04/23 03:02:47;;;;;;;40.58;20.52;;;;;;;;;;4955833;29;20126;-83
2022/04/23 03:05:14;;;;;;;46.63;21.08;;;;;;;;;;4956191;28;20042;-83
2022/04/23 03:07:39;;;;;;;44.30;21.75;;;;;;;;;;4955564;29;20035;-83
2022/04/23 03:10:04;;;;;;;41.33;20.15;;;;;;;;;;4958208;28;20491;-83
2022/04/23 03:12:30;;;;;;;42.70;21.50;;;;;;;;;;4959156;29;20039;-83
2022/04/23 03:14:55;;;;;;;43.75;20.70;;;;;;;;;;4959797;28;20023;-84
2022/04/23 03:17:20;;;;;;;41.85;20.90;;;;;;;;;;4959105;29;20048;-83
2022/04/23 03:19:47;;;;;;;37.35;19.17;;;;;;;;;;4960153;28;20035;-83
2022/04/23 03:22:13;;;;;;;38.75;20.33;;;;;;;;;;4959357;29;20036;-83
2022/04/23 03:24:39;;;;;;;37.45;19.13;;;;;;;;;;4959869;28;20049;-83
2022/04/23 03:27:04;;;;;;;39.03;20.77;;;;;;;;;;4959937;28;20035;-83
2022/04/23 03:29:29;;;;;;;42.55;21.50;;;;;;;;;;4959576;28;20145;-83
2022/04/23 03:31:55;;;;;;;38.92;20.10;;;;;;;;;;4960475;28;20046;-83
2022/04/23 03:34:20;;;;;;;35.67;19.33;;;;;;;;;;4957771;29;20039;-83
2022/04/23 03:36:45;;;;;;;38.63;20.67;;;;;;;;;;4959708;28;20059;-83
2022/04/23 03:39:11;;;;;;;37.53;19.65;;;;;;;;;;4958610;29;20484;-83
2022/04/23 03:41:36;;;;;;;33.58;18.13;;;;;;;;;;4959659;28;20042;-83
2022/04/23 03:44:01;;;;;;;31.90;17.30;;;;;;;;;;4959440;28;20071;-83
2022/04/23 03:46:26;;;;;;;34.30;18.55;;;;;;;;;;4960055;28;20039;-83
2022/04/23 03:48:51;;;;;;;36.38;18.55;;;;;;;;;;4958295;28;20062;-83
2022/04/23 03:51:17;;;;;;;34.40;18.02;;;;;;;;;;4959940;28;20050;-83
2022/04/23 03:53:42;;;;;;;34.63;17.42;;;;;;;;;;4958118;29;20042;-83
2022/04/23 03:56:09;;;;;;;34.60;17.08;;;;;;;;;;4958508;28;20493;-83
2022/04/23 03:58:34;;;;;;;31.73;17.70;;;;;;;;;;4957857;29;20031;-83
2022/04/23 04:00:59;;;;;;;30.73;16.02;;;;;;;;;;4957806;29;20047;-83
2022/04/23 04:03:24;;;;;;;30.27;16.98;;;;;;;;;;4959644;28;20050;-84
2022/04/23 04:05:50;;;;;;;30.02;17.27;;;;;;;;;;4957927;29;20507;-83
2022/04/23 04:08:15;;;;;;;31.08;17.05;;;;;;;;;;4960327;28;20058;-83
2022/04/23 04:10:40;;;;;;;32.35;16.85;;;;;;;;;;4958774;28;20038;-84
2022/04/23 04:13:06;;;;;;;30.83;16.65;;;;;;;;;;4959112;28;20031;-83
2022/04/23 04:15:31;;;;;;;34.53;17.50;;;;;;;;;;4958578;28;20044;-83
2022/04/23 04:17:57;;;;;;;32.75;17.55;;;;;;;;;;4959072;28;20061;-83
2022/04/23 04:20:23;;;;;;;31.98;17.08;;;;;;;;;;4957462;28;20118;-83
2022/04/23 04:22:48;;;;;;;33.25;16.60;;;;;;;;;;4958850;28;20067;-83
2022/04/23 04:25:13;;;;;;;33.80;17.65;;;;;;;;;;4941301;29;20031;-83
2022/04/23 04:27:38;;;;;;;32.28;17.42;;;;;;;;;;4959115;28;20071;-83
2022/04/23 04:30:04;;;;;;;32.05;17.15;;;;;;;;;;4958977;28;20038;-83
2022/04/23 04:32:29;;;;;;;34.50;18.13;;;;;;;;;;4958642;28;20039;-83
2022/04/23 04:34:54;;;;;;;31.60;16.45;;;;;;;;;;4958345;28;20094;-83
2022/04/23 04:37:19;;;;;;;34.67;18.17;;;;;;;;;;4941571;28;20045;-83
2022/04/23 04:39:45;;;;;;;29.67;17.38;;;;;;;;;;4958992;28;20035;-83
2022/04/23 04:42:10;;;;;;;31.00;16.80;;;;;;;;;;4959156;28;20484;-83
2022/04/23 04:44:35;;;;;;;28.63;15.63;;;;;;;;;;4958532;28;20078;-83
2022/04/23 04:47:10;;;;;;;31.45;16.90;;;;;;;;;;4959258;28;20062;-83
2022/04/23 04:49:36;;;;;;;30.38;16.15;;;;;;;;;;4957232;29;20522;-83
2022/04/23 04:52:01;;;;;;;28.98;15.60;;;;;;;;;;4958599;28;20038;-83
2022/04/23 04:54:26;;;;;;;28.92;15.60;;;;;;;;;;4956535;28;20122;-83
2022/04/23 04:56:52;;;;;;;31.23;16.63;;;;;;;;;;4958302;28;20035;-83
2022/04/23 04:59:17;;;;;;;28.58;15.27;;;;;;;;;;4958372;28;20039;-83
2022/04/23 05:01:42;;;;;;;27.52;15.85;;;;;;;;;;4958002;28;20054;-83
2022/04/23 05:04:07;;;;;;;31.65;15.93;;;;;;;;;;4956220;29;20079;-83
2022/04/23 05:06:33;;;;;;;27.95;14.68;;;;;;;;;;4958110;28;20039;-83
2022/04/23 05:08:58;;;;;;;27.38;15.38;;;;;;;;;;4957826;28;20468;-83
2022/04/23 05:11:24;;;;;;;28.55;14.93;;;;;;;;;;4958411;28;20031;-83
2022/04/23 05:13:49;;;;;;;29.33;15.68;;;;;;;;;;4958147;28;20031;-83
2022/04/23 05:16:15;;;;;;;26.23;14.68;;;;;;;;;;4955969;29;20109;-82
2022/04/23 05:18:40;;;;;;;29.58;15.30;;;;;;;;;;4957626;28;20039;-83
2022/04/23 05:21:08;;;;;;;27.40;14.18;;;;;;;;;;4957800;28;20035;-83
2022/04/23 05:23:33;;;;;;;28.80;15.55;;;;;;;;;;4957339;28;20046;-83
2022/04/23 05:25:58;;;;;;;26.75;14.75;;;;;;;;;;4955994;29;20047;-83
2022/04/23 05:28:23;;;;;;;27.65;14.82;;;;;;;;;;4958176;28;20094;-83
2022/04/23 05:30:49;;;;;;;26.65;14.68;;;;;;;;;;4955560;29;20035;-83
2022/04/23 05:33:14;;;;;;;24.27;14.50;;;;;;;;;;4957263;28;20027;-82
2022/04/23 05:35:39;;;;;;;27.15;15.23;;;;;;;;;;4956123;29;20373;-83
2022/04/23 05:38:04;;;;;;;25.40;14.70;;;;;;;;;;4956889;28;20073;-83
2022/04/23 05:40:30;;;;;;;28.98;15.13;;;;;;;;;;4957953;28;20031;-83
2022/04/23 05:42:58;;;;;;;25.58;14.50;;;;;;;;;;4956378;29;20039;-83
2022/04/23 05:45:23;;;;;;;26.38;15.02;;;;;;;;;;4955998;28;20052;-83
2022/04/23 05:47:48;;;;;;;25.15;15.02;;;;;;;;;;4955692;29;20054;-82
2022/04/23 05:50:14;;;;;;;24.85;13.85;;;;;;;;;;4956561;28;20086;-82
2022/04/23 05:52:39;;;;;;;24.30;14.23;;;;;;;;;;4956685;28;20031;-82
2022/04/23 05:55:04;;;;;;;31.50;17.45;;;;;;;;;;4956504;28;20531;-83
2022/04/23 05:57:29;;;;;;;26.63;15.07;;;;;;;;;;4957054;28;20058;-82
2022/04/23 05:59:55;;;;;;;24.52;13.95;;;;;;;;;;4956438;28;20086;-82
2022/04/23 06:02:21;;;;;;;25.40;15.35;;;;;;;;;;4956960;28;20035;-82
2022/04/23 06:04:48;;;;;;;23.70;14.15;;;;;;;;;;4955442;29;20370;-82
2022/04/23 06:07:14;;;;;;;24.05;14.25;;;;;;;;;;4957833;28;20085;-82
2022/04/23 06:09:39;;;;;;;24.40;13.68;;;;;;;;;;4957517;28;20106;-82
2022/04/23 06:12:04;;;;;;;24.30;14.00;;;;;;;;;;4957119;28;20106;-82
2022/04/23 06:14:29;;;;;;;23.33;13.82;;;;;;;;;;4955949;28;20118;-82
2022/04/23 06:16:55;;;;;;;25.92;14.00;;;;;;;;;;4956867;28;20043;-82
2022/04/23 06:19:20;;;;;;;22.20;13.15;;;;;;;;;;4957287;28;20035;-82
2022/04/23 06:21:45;;;;;;;24.45;13.27;;;;;;;;;;4956136;29;20093;-83
2022/04/23 06:24:10;;;;;;;23.75;13.38;;;;;;;;;;4957684;28;20043;-83
2022/04/23 06:26:36;;;;;;;22.38;12.63;;;;;;;;;;4956533;29;20037;-84
2022/04/23 06:29:01;;;;;;;23.38;12.70;;;;;;;;;;4957648;28;20377;-83
2022/04/23 06:31:26;;;;;;;21.60;12.63;;;;;;;;;;4956448;28;20060;-82
2022/04/23 06:33:51;;;;;;;23.60;13.13;;;;;;;;;;4956881;28;20023;-84
2022/04/23 06:36:17;;;;;;;26.05;13.27;;;;;;;;;;4956858;28;20496;-83
2022/04/23 06:38:42;;;;;;;25.70;14.23;;;;;;;;;;4956305;28;20404;-83
2022/04/23 06:41:07;;;;;;;20.27;12.27;;;;;;;;;;4955893;28;20171;-83
2022/04/23 06:43:32;;;;;;;22.95;12.93;;;;;;;;;;4957293;28;20031;-82
2022/04/23 06:46:01;;;;;;;22.58;12.93;;;;;;;;;;4958407;28;20063;-83
2022/04/23 06:48:26;;;;;;;20.70;12.02;;;;;;;;;;4959016;28;20038;-83
2022/04/23 06:50:51;;;;;;;21.38;12.77;;;;;;;;;;4960147;28;20035;-83
2022/04/23 06:53:17;;;;;;;23.05;12.63;;;;;;;;;;4960840;28;20559;-83
2022/04/23 06:55:42;;;;;;;21.10;13.00;;;;;;;;;;4961960;28;20038;-83
2022/04/23 06:58:07;;;;;;;21.15;12.25;;;;;;;;;;4973440;28;20046;-82
2022/04/23 07:00:32;;;;;;;18.73;11.68;;;;;;;;;;4962758;28;20031;-83
2022/04/23 07:02:58;;;;;;;21.23;11.90;;;;;;;;;;4959926;28;20035;-83
2022/04/23 07:05:23;;;;;;;20.00;11.68;;;;;;;;;;4959884;28;20114;-83
2022/04/23 07:07:48;;;;;;;20.30;12.52;;;;;;;;;;4959541;29;20043;-83
2022/04/23 07:10:13;;;;;;;20.50;13.00;;;;;;;;;;4959249;28;20118;-83
2022/04/23 07:12:39;;;;;;;21.15;12.93;;;;;;;;;;4969489;28;20086;-84
2022/04/23 07:15:05;;;;;;;18.10;11.30;;;;;;;;;;4977898;28;20070;-85
2022/04/23 07:17:30;;;;;;;21.80;11.43;;;;;;;;;;4980290;28;20093;-84
2022/04/23 07:19:55;;;;;;;18.27;11.35;;;;;;;;;;4969032;28;20063;-83
2022/04/23 07:22:20;;;;;;;17.17;11.00;;;;;;;;;;4960700;28;20480;-82
2022/04/23 07:24:47;;;;;;;16.60;10.88;;;;;;;;;;4958061;29;20047;-82
2022/04/23 07:27:13;;;;;;;17.20;10.98;;;;;;;;;;4958480;29;20066;-82
2022/04/23 07:29:38;;;;;;;18.15;10.75;;;;;;;;;;4968623;28;20031;-82
2022/04/23 07:32:03;;;;;;;20.02;11.32;;;;;;;;;;4978858;28;20628;-83
2022/04/23 07:37:31;;;;;;;18.65;10.88;;;;;;;;;;4978725;28;20039;-83
2022/04/23 07:39:57;;;;;;;;;;;;;;;;;;4978969;28;20031;-83
2022/04/23 07:42:22;;;;;;;17.08;9.57;;;;;;;;;;4978855;28;19941;-83
2022/04/23 07:44:47;;;;;;;18.83;10.82;;;;;;;;;;4978211;28;20043;-83
2022/04/23 07:47:13;;;;;;;17.00;10.02;;;;;;;;;;4976742;28;20101;-83
2022/04/23 07:49:38;;;;;;;16.25;10.20;;;;;;;;;;4967803;28;20117;-82
2022/04/23 07:52:03;;;;;;;15.63;9.27;;;;;;;;;;4963000;28;20027;-82
2022/04/23 07:54:29;;;;;;;17.38;9.73;;;;;;;;;;4977064;28;20504;-82
2022/04/23 07:56:54;;;;;;;16.27;10.10;;;;;;;;;;4948456;28;20039;-86
2022/04/23 07:59:20;;;;;;;16.23;10.40;;;;;;;;;;4939193;29;20055;-83
2022/04/23 08:01:46;;;;;;;16.30;9.90;;;;;;;;;;4937763;29;20035;-83
2022/04/23 08:04:11;;;;;;;13.85;9.45;;;;;;;;;;4939190;29;20035;-84
2022/04/23 08:06:36;;;;;;;16.88;10.40;;;;;;;;;;4940986;29;20130;-84
2022/04/23 08:09:02;;;;;;;14.40;9.50;;;;;;;;;;4938681;29;20042;-83
2022/04/23 08:11:27;;;;;;;16.10;9.65;;;;;;;;;;4955025;29;20043;-83
2022/04/23 08:13:52;;;;;;;13.88;9.02;;;;;;;;;;4940262;29;20095;-83
2022/04/23 08:16:17;;;;;;;14.35;9.20;;;;;;;;;;4940048;29;20062;-83
2022/04/23 08:18:43;;;;;;;13.88;9.40;;;;;;;;;;4954696;29;20710;-83
2022/04/23 08:21:08;;;;;;;13.88;9.32;;;;;;;;;;4939573;29;20036;-83
2022/04/23 08:23:33;;;;;;;12.35;8.75;;;;;;;;;;4938932;29;20057;-83
2022/04/23 08:26:00;;;;;;;15.70;9.43;;;;;;;;;;4937349;29;20107;-83
2022/04/23 08:31:09;;;;;;;13.75;9.18;;;;;;;;;;4964479;28;20038;-83
2022/04/23 08:36:18;;;;;;;15.05;8.95;;;;;;;;;;4977010;28;20050;-82
2022/04/23 08:38:44;;;;;;;16.42;9.52;;;;;;;;;;4968589;28;20041;-83
2022/04/23 08:41:10;;;;;;;14.35;9.40;;;;;;;;;;4957320;29;20064;-83
2022/04/23 08:43:36;;;;;;;12.73;8.13;;;;;;;;;;4956343;29;20041;-83
2022/04/23 08:46:02;;;;;;;12.45;8.23;;;;;;;;;;4955986;29;20049;-83
2022/04/23 08:48:27;;;;;;;13.02;8.90;;;;;;;;;;4974399;28;20098;-83
2022/04/23 08:50:52;;;;;;;12.65;8.43;;;;;;;;;;4975595;28;20408;-84
2022/04/23 08:53:18;;;;;;;14.65;9.60;;;;;;;;;;4976825;28;20125;-83
2022/04/23 08:55:45;;;;;;;14.73;9.00;;;;;;;;;;4975083;28;20043;-83
2022/04/23 08:58:11;;;;;;;13.93;8.60;;;;;;;;;;4976344;28;20038;-83
2022/04/23 09:00:36;;;;;;;20.23;11.68;;;;;;;;;;4975736;28;20031;-84
2022/04/23 09:03:01;;;;;;;13.40;9.07;;;;;;;;;;4977154;28;20045;-83
2022/04/23 09:05:28;;;;;;;23.02;14.88;;;;;;;;;;4954722;28;20497;-83
2022/04/23 09:07:54;;;;;;;16.55;11.02;;;;;;;;;;4938830;29;20576;-83
2022/04/23 09:10:20;;;;;;;17.63;12.55;;;;;;;;;;4937050;29;20071;-84
2022/04/23 09:12:45;;;;;;;25.20;16.40;;;;;;;;;;4939170;29;20032;-83
2022/04/23 09:23:40;;;;;;;15.18;9.48;;;;;;;;;;4939632;29;20039;-83
2022/04/23 09:26:05;;;;;;;15.70;8.23;;;;;;;;;;4936948;29;20032;-83
2022/04/23 09:28:30;;;;;;;11.48;8.23;;;;;;;;;;4938802;29;20516;-83
2022/04/23 09:30:56;;;;;;;14.60;8.43;;;;;;;;;;4949792;29;20093;-84
2022/04/23 09:33:27;;;;;;;14.52;9.15;;;;;;;;;;4958666;28;20031;-85
2022/04/23 09:35:52;;;;;;;12.57;7.60;;;;;;;;;;4958987;29;20039;-84
2022/04/23 09:38:20;;;;;;;12.73;8.25;;;;;;;;;;4958849;28;20110;-84
2022/04/23 09:40:46;;;;;;;11.82;6.97;;;;;;;;;;4957815;29;20082;-83
2022/04/23 09:43:11;;;;;;;12.45;7.20;;;;;;;;;;4958103;29;20034;-83
2022/04/23 09:45:41;;;;;;;8.75;6.45;;;;;;;;;;4957741;29;20075;-83
2022/04/23 09:48:06;;;;;;;8.30;6.18;;;;;;;;;;4958153;29;20043;-83
2022/04/23 09:50:31;;;;;;;9.90;6.72;;;;;;;;;;4958138;29;20034;-83
2022/04/23 09:52:57;;;;;;;26.42;17.83;;;;;;;;;;4958749;29;20035;-83
2022/04/23 09:55:22;;;;;;;9.20;6.30;;;;;;;;;;4955990;29;20036;-83
2022/04/23 09:57:47;;;;;;;9.20;5.85;;;;;;;;;;4956713;29;20105;-84
2022/04/23 10:00:12;;;;;;;7.15;5.32;;;;;;;;;;4941102;29;20033;-83
2022/04/23 10:02:38;;;;;;;6.95;5.40;;;;;;;;;;4958108;29;20039;-84
2022/04/23 10:05:03;;;;;;;10.27;6.40;;;;;;;;;;4969272;28;20031;-84
2022/04/23 10:07:29;;;;;;;9.65;6.20;;;;;;;;;;4979072;28;20039;-83
2022/04/23 10:09:54;;;;;;;7.32;5.32;;;;;;;;;;4977184;28;20070;-84
2022/04/23 10:12:19;;;;;;;7.43;5.40;;;;;;;;;;4978531;28;20035;-85
2022/04/23 10:14:46;;;;;;;8.13;5.40;;;;;;;;;;4977199;28;20129;-84
2022/04/23 10:17:14;;;;;;;10.55;5.72;;;;;;;;;;4977356;28;20093;-84
2022/04/23 10:19:39;;;;;;;13.25;5.28;;;;;;;;;;4981033;28;20089;-84
2022/04/23 10:22:07;;;;;;;11.35;5.25;;;;;;;;;;4982458;28;20039;-85
2022/04/23 10:24:32;;;;;;;9.45;5.05;;;;;;;;;;4982343;28;20034;-85
2022/04/23 10:26:58;;;;;;;7.82;5.18;;;;;;;;;;4981325;28;20049;-84
2022/04/23 10:29:23;;;;;;;9.95;5.63;;;;;;;;;;4982203;28;20074;-85
2022/04/23 10:31:49;;;;;;;9.93;5.68;;;;;;;;;;4982441;28;20030;-85
2022/04/23 10:34:14;;;;;;;8.20;5.00;;;;;;;;;;4980087;28;20415;-85
2022/04/23 10:36:39;;;;;;;7.63;5.85;;;;;;;;;;4973684;28;20042;-87
2022/04/23 10:39:04;;;;;;;8.90;6.50;;;;;;;;;;4965226;28;20039;-84
2022/04/23 10:41:29;;;;;;;10.68;5.90;;;;;;;;;;4981202;28;20027;-84
2022/04/23 10:43:55;;;;;;;9.57;6.50;;;;;;;;;;4976600;28;20535;-84
2022/04/23 10:46:20;;;;;;;8.93;6.15;;;;;;;;;;4961305;29;20062;-84
2022/04/23 10:48:45;;;;;;;11.23;7.28;;;;;;;;;;4963224;29;20027;-84
2022/04/23 10:51:15;;;;;;;10.05;7.30;;;;;;;;;;4962959;29;20122;-84
2022/04/23 10:53:41;;;;;;;9.63;6.90;;;;;;;;;;4976403;28;20117;-84
2022/04/23 10:56:07;;;;;;;10.63;7.55;;;;;;;;;;4979416;28;20504;-86
2022/04/23 10:58:33;;;;;;;10.80;7.60;;;;;;;;;;4982112;28;20086;-84
2022/04/23 11:00:58;;;;;;;12.93;8.15;;;;;;;;;;4982152;28;20034;-84
2022/04/23 11:03:23;;;;;;;10.25;7.97;;;;;;;;;;4982505;28;20077;-84
2022/04/23 11:14:00;;;;;;;;;;;;;;;;;;4979835;28;20030;-84
2022/04/23 11:16:28;;;;;;;13.00;9.38;;;;;;;;;;4977772;28;19925;-84
2022/04/23 11:18:53;;;;;;;15.30;10.65;;;;;;;;;;4961171;29;20066;-84
2022/04/23 11:21:23;;;;;;;14.02;9.77;;;;;;;;;;4962558;28;20035;-84
2022/04/23 11:23:48;;;;;;;18.63;10.23;;;;;;;;;;4962304;29;20067;-87
2022/04/23 11:26:13;;;;;;;14.73;10.25;;;;;;;;;;4961810;28;20039;-84
2022/04/23 11:28:39;;;;;;;16.08;10.70;;;;;;;;;;4962162;28;20031;-85
2022/04/23 11:31:05;;;;;;;16.35;10.40;;;;;;;;;;4961235;28;20037;-84
2022/04/23 11:33:30;;;;;;;16.42;11.32;;;;;;;;;;4944406;29;20121;-84
2022/04/23 11:35:55;;;;;;;18.25;11.65;;;;;;;;;;4961764;28;20031;-84
2022/04/23 11:38:20;;;;;;;16.67;11.52;;;;;;;;;;4960703;28;20562;-84
2022/04/23 11:40:46;;;;;;;19.17;11.70;;;;;;;;;;4944790;29;20122;-84
2022/04/23 11:43:13;;;;;;;18.13;11.73;;;;;;;;;;4962095;28;20047;-84
2022/04/23 11:45:38;;;;;;;17.35;11.48;;;;;;;;;;4961595;28;20400;-84
2022/04/23 11:48:03;;;;;;;18.42;12.18;;;;;;;;;;4961370;28;20035;-84
2022/04/23 11:50:28;;;;;;;22.45;12.32;;;;;;;;;;4960401;29;20054;-84
2022/04/23 11:52:54;;;;;;;16.90;11.60;;;;;;;;;;4961462;28;20110;-84
2022/04/23 11:55:19;;;;;;;19.27;12.38;;;;;;;;;;4961203;28;20058;-84
2022/04/23 11:57:45;;;;;;;17.90;12.10;;;;;;;;;;4960867;29;20419;-84
2022/04/23 12:00:10;;;;;;;19.42;10.88;;;;;;;;;;4960393;29;20042;-84
2022/04/23 12:02:36;;;;;;;19.73;11.40;;;;;;;;;;4944189;29;20099;-84
2022/04/23 12:05:02;;;;;;;19.85;11.70;;;;;;;;;;4960376;28;20039;-84
2022/04/23 12:07:28;;;;;;;20.90;12.30;;;;;;;;;;4944635;28;20039;-84
2022/04/23 12:09:53;;;;;;;18.10;11.70;;;;;;;;;;4960048;29;20030;-84
2022/04/23 12:12:21;;;;;;;18.98;12.10;;;;;;;;;;4961205;28;20082;-84
2022/04/23 12:14:46;;;;;;;16.83;11.27;;;;;;;;;;4959174;29;20041;-84
2022/04/23 12:17:12;;;;;;;17.90;11.73;;;;;;;;;;4944419;29;20082;-84
2022/04/23 12:19:37;;;;;;;19.88;11.13;;;;;;;;;;4960736;28;20094;-84
2022/04/23 12:22:02;;;;;;;19.27;12.90;;;;;;;;;;4960579;28;20492;-85
2022/04/23 12:24:28;;;;;;;20.45;11.65;;;;;;;;;;4960559;28;20035;-84
2022/04/23 12:26:53;;;;;;;19.05;12.05;;;;;;;;;;4960559;28;20031;-85
2022/04/23 12:42:57;;;;;;;18.10;11.98;;;;;;;;;;4963454;28;19914;-85
2022/04/23 12:45:23;;;;;;;17.90;12.18;;;;;;;;;;4972535;28;20096;-85
2022/04/23 12:47:48;;;;;;;17.27;11.80;;;;;;;;;;4980105;28;20089;-86
2022/04/23 12:50:13;;;;;;;17.20;11.82;;;;;;;;;;4980294;28;20039;-84
2022/04/23 12:52:38;;;;;;;15.68;11.18;;;;;;;;;;4955778;28;20046;-84
2022/04/23 12:55:04;;;;;;;19.75;12.02;;;;;;;;;;4939987;29;20086;-84
2022/04/23 12:57:29;;;;;;;21.45;12.00;;;;;;;;;;4938718;29;20460;-84
2022/04/23 12:59:54;;;;;;;16.83;11.52;;;;;;;;;;4940857;29;20063;-86
2022/04/23 13:02:19;;;;;;;18.75;11.85;;;;;;;;;;4941462;29;20040;-84
2022/04/23 13:04:50;;;;;;;17.02;11.20;;;;;;;;;;5130762;27;20143;-84
2022/04/23 13:10:00;;;;;;;21.15;12.93;;;;;;;;;;5114551;28;20510;-85
2022/04/23 13:12:25;;;;;;;17.75;11.30;;;;;;;;;;5114842;28;20119;-85
2022/04/23 13:14:51;;;;;;;15.40;10.82;;;;;;;;;;5115395;28;20553;-85
2022/04/23 13:17:16;;;;;;;16.70;11.23;;;;;;;;;;5115819;28;20040;-85
2022/04/23 13:19:41;;;;;;;17.63;11.18;;;;;;;;;;5114353;28;20039;-85
2022/04/23 13:22:06;;;;;;;15.20;10.85;;;;;;;;;;5110461;28;20035;-85
2022/04/23 13:24:31;;;;;;;16.17;11.13;;;;;;;;;;5108585;28;20111;-84
2022/04/23 13:26:57;;;;;;;32.15;11.45;;;;;;;;;;5115359;28;20039;-85
2022/04/23 13:29:23;;;;;;;17.80;11.85;;;;;;;;;;5112285;28;20032;-85
2022/04/23 13:31:48;;;;;;;17.25;11.35;;;;;;;;;;5115622;28;20036;-85
2022/04/23 13:34:13;;;;;;;16.42;11.43;;;;;;;;;;5115182;28;20034;-84
2022/04/23 13:36:38;;;;;;;19.85;10.95;;;;;;;;;;5115182;28;20114;-84
2022/04/23 13:39:04;;;;;;;16.85;11.32;;;;;;;;;;5113768;28;20032;-84
2022/04/23 13:41:29;;;;;;;25.02;11.88;;;;;;;;;;5114028;28;20468;-83
2022/04/23 13:43:55;;;;;;;16.90;11.82;;;;;;;;;;5114390;28;20031;-84
2022/04/23 13:46:20;;;;;;;17.83;11.82;;;;;;;;;;5114707;28;20030;-84
2022/04/23 13:48:45;;;;;;;24.38;12.63;;;;;;;;;;5115148;28;20126;-84
2022/04/23 13:51:10;;;;;;;18.15;11.63;;;;;;;;;;5115073;28;20492;-84
2022/04/23 13:53:36;;;;;;;40.88;13.38;;;;;;;;;;5113008;28;20064;-84
2022/04/23 13:56:01;;;;;;;18.52;12.18;;;;;;;;;;5114007;28;20107;-84
2022/04/23 13:58:26;;;;;;;21.30;13.32;;;;;;;;;;5103581;28;20047;-84
2022/04/23 14:00:51;;;;;;;37.88;13.75;;;;;;;;;;5092250;28;20032;-84
2022/04/23 14:11:29;;;;;;;21.17;13.43;;;;;;;;;;5092542;28;20091;-84
2022/04/23 14:13:59;;;;;;;25.88;12.52;;;;;;;;;;5092651;28;20044;-82
2022/04/23 14:16:25;;;;;;;30.13;13.15;;;;;;;;;;5079432;28;20044;-86
2022/04/23 14:18:50;;;;;;;19.92;12.70;;;;;;;;;;5078654;28;20036;-84
2022/04/23 14:21:15;;;;;;;21.80;12.52;;;;;;;;;;5078336;28;20032;-84
2022/04/23 14:23:41;;;;;;;18.17;12.73;;;;;;;;;;5078300;28;20039;-85
2022/04/23 14:26:06;;;;;;;18.20;12.30;;;;;;;;;;5078925;28;20041;-85
2022/04/23 14:28:31;;;;;;;18.60;12.38;;;;;;;;;;5079289;28;20029;-84
2022/04/23 14:30:56;;;;;;;20.20;13.75;;;;;;;;;;5080786;28;20043;-85
2022/04/23 14:33:22;;;;;;;19.70;13.35;;;;;;;;;;5100217;28;20103;-85
2022/04/23 14:35:48;;;;;;;21.35;13.18;;;;;;;;;;5099226;28;20032;-85
2022/04/23 14:38:13;;;;;;;19.50;13.45;;;;;;;;;;5099089;28;20060;-84
2022/04/23 14:40:38;;;;;;;20.08;13.23;;;;;;;;;;5099163;28;20032;-84
2022/04/23 14:43:05;;;;;;;21.38;13.40;;;;;;;;;;5098471;28;20044;-84
2022/04/23 14:45:30;;;;;;;20.55;13.60;;;;;;;;;;5098270;28;20392;-84
2022/04/23 14:47:56;;;;;;;25.52;13.13;;;;;;;;;;5097336;28;20036;-84
2022/04/23 14:50:21;;;;;;;22.67;13.00;;;;;;;;;;5098009;28;20032;-84
2022/04/23 14:55:30;;;;;;;17.42;12.65;;;;;;;;;;5098106;28;20038;-84
2022/04/23 14:57:56;;;;;;;18.25;12.77;;;;;;;;;;5097321;28;20036;-83
2022/04/23 15:00:21;;;;;;;18.65;12.40;;;;;;;;;;5098792;28;20054;-83
2022/04/23 15:02:46;;;;;;;18.30;12.60;;;;;;;;;;5098427;28;20078;-83